Welcome to the New NWS' Forecast!
Most changes are behind the scenes, but click here for differences you might notice.

Terminal Aerodrome Forecast (TAF)

Issued by National Weather Service (NWS)

                            
000
FTUS42 KKEY 162026 AAA
TAFMTH
TAF AMD
KMTH 162026Z 1620/1718 10012G20KT P6SM SCT025
     FM162300 09010G18KT P6SM VCSH SCT025 SCT050
      TEMPO 1702/1706 3SM SHRA BKN025
     FM171300 10010G18KT P6SM SCT025=